Time;durP1;ratioP1;P1;durP2;ratioP2;P2;SDS_P1;SDS_P2;PMS_P1;PMS_P2;Temp;Humidity;BMP_temperature;BMP_pressure;BME280_temperature;BME280_humidity;BME280_pressure;Samples;Min_cycle;Max_cycle;Signal;HPM_P1;HPM_P2
2021/05/27 00:00:12;;;;;;;5.47;2.00;;;9.10;99.90;;;;;;5062293;28;20452;-74
2021/05/27 00:02:38;;;;;;;2.90;1.73;;;9.10;99.90;;;;;;5046502;28;20221;-75
2021/05/27 00:05:06;;;;;;;2.60;2.10;;;9.10;99.90;;;;;;5049581;28;20534;-75
2021/05/27 00:07:31;;;;;;;2.50;1.73;;;9.20;99.90;;;;;;5066587;28;20240;-75
2021/05/27 00:09:57;;;;;;;2.23;1.80;;;9.10;99.90;;;;;;5056976;28;20526;-75
2021/05/27 00:12:23;;;;;;;4.40;2.50;;;9.10;99.90;;;;;;5017439;28;20217;-75
2021/05/27 00:14:49;;;;;;;1.87;1.77;;;9.10;99.90;;;;;;5040091;28;20692;-75
2021/05/27 00:17:16;;;;;;;3.30;2.37;;;9.10;99.90;;;;;;5028127;28;20231;-75
2021/05/27 00:19:42;;;;;;;2.23;2.03;;;9.10;99.90;;;;;;5054509;28;20224;-75
2021/05/27 00:22:08;;;;;;;2.23;1.80;;;9.10;99.90;;;;;;5025281;28;21007;-75
2021/05/27 00:24:36;;;;;;;4.20;1.90;;;9.10;99.90;;;;;;5050162;28;20451;-76
2021/05/27 00:27:03;;;;;;;2.40;1.90;;;9.10;99.90;;;;;;5036984;28;20448;-75
2021/05/27 00:29:29;;;;;;;3.30;1.80;;;9.00;99.90;;;;;;5059378;28;20456;-75
2021/05/27 00:31:54;;;;;;;2.13;1.93;;;9.00;99.90;;;;;;5061696;28;20474;-75
2021/05/27 00:34:20;;;;;;;2.97;2.47;;;8.90;99.90;;;;;;5059953;28;20721;-75
2021/05/27 00:36:46;;;;;;;2.07;1.87;;;8.90;99.90;;;;;;5069722;28;20205;-75
2021/05/27 00:39:12;;;;;;;1.70;1.60;;;8.90;99.90;;;;;;5055734;28;20213;-75
2021/05/27 00:41:38;;;;;;;2.03;1.83;;;8.80;99.90;;;;;;5063119;28;20993;-75
2021/05/27 00:44:21;;;;;;;3.40;1.93;;;8.80;99.90;;;;;;5031144;28;20303;-74
2021/05/27 00:46:47;;;;;;;1.77;1.67;;;8.80;99.90;;;;;;5042143;28;20546;-75
2021/05/27 00:49:13;;;;;;;1.93;1.83;;;8.80;99.90;;;;;;5048044;28;20459;-75
2021/05/27 00:51:39;;;;;;;2.40;2.20;;;8.80;99.90;;;;;;5077349;28;20606;-75
2021/05/27 00:54:06;;;;;;;2.10;1.73;;;8.80;99.90;;;;;;5037432;28;20255;-75
2021/05/27 00:56:31;;;;;;;1.43;1.33;;;8.70;99.90;;;;;;5046806;28;20474;-75
2021/05/27 00:58:58;;;;;;;1.40;1.30;;;8.70;99.90;;;;;;5048507;28;20466;-74
2021/05/27 01:01:24;;;;;;;3.87;1.83;;;8.70;99.90;;;;;;5020068;28;20461;-75
2021/05/27 01:03:50;;;;;;;1.87;1.70;;;8.70;99.90;;;;;;5006585;28;20831;-75
2021/05/27 01:06:16;;;;;;;1.70;1.60;;;8.70;99.90;;;;;;5040566;28;20517;-75
2021/05/27 01:08:41;;;;;;;2.07;1.90;;;8.70;99.90;;;;;;5078847;28;20220;-75
2021/05/27 01:11:07;;;;;;;2.60;1.90;;;8.70;99.90;;;;;;5061817;28;20236;-75
2021/05/27 01:13:33;;;;;;;1.90;1.80;;;8.70;99.90;;;;;;5043085;28;20308;-75
2021/05/27 01:16:00;;;;;;;2.40;1.90;;;8.70;99.90;;;;;;5043323;28;20224;-75
2021/05/27 01:18:27;;;;;;;1.80;1.70;;;8.70;99.90;;;;;;5039511;28;20467;-75
2021/05/27 01:20:57;;;;;;;1.90;1.80;;;8.70;99.90;;;;;;5052796;28;20216;-75
2021/05/27 01:23:26;;;;;;;2.13;1.93;;;8.60;99.90;;;;;;5076558;28;20530;-75
2021/05/27 01:25:54;;;;;;;2.30;1.60;;;8.60;99.90;;;;;;5061541;28;20501;-75
2021/05/27 01:28:20;;;;;;;2.63;2.17;;;8.60;99.90;;;;;;5074590;28;20455;-75
2021/05/27 01:30:47;;;;;;;2.87;2.17;;;8.60;99.90;;;;;;5030103;28;20468;-75
2021/05/27 01:33:27;;;;;;;2.20;2.00;;;8.60;99.90;;;;;;5056968;28;20474;-75
2021/05/27 01:35:54;;;;;;;2.40;2.00;;;8.60;99.90;;;;;;5043455;28;20458;-75
2021/05/27 01:38:24;;;;;;;2.40;2.20;;;8.60;99.90;;;;;;5075141;28;20452;-75
2021/05/27 01:40:52;;;;;;;2.80;2.30;;;8.50;99.90;;;;;;5073068;28;20448;-75
2021/05/27 01:43:20;;;;;;;2.20;2.00;;;8.60;99.90;;;;;;5077753;28;20477;-75
2021/05/27 01:45:46;;;;;;;3.00;2.57;;;8.50;99.90;;;;;;5030467;28;20479;-74
2021/05/27 01:48:12;;;;;;;6.63;3.17;;;8.60;99.90;;;;;;5045337;28;20491;-74
2021/05/27 01:50:43;;;;;;;5.20;2.17;;;8.60;99.90;;;;;;5072575;28;20229;-74
2021/05/27 01:53:09;;;;;;;2.20;2.00;;;8.60;99.90;;;;;;5044133;28;20219;-74
2021/05/27 01:55:44;;;;;;;3.57;2.50;;;8.50;99.90;;;;;;5075249;28;20558;-74
2021/05/27 01:58:10;;;;;;;3.10;2.80;;;8.60;99.90;;;;;;5025828;28;20938;-74
2021/05/27 02:00:37;;;;;;;2.37;2.17;;;8.60;99.90;;;;;;5040490;28;20461;-74
2021/05/27 02:03:03;;;;;;;3.33;2.60;;;8.60;99.90;;;;;;5027751;28;20456;-74
2021/05/27 02:05:33;;;;;;;4.13;2.10;;;8.60;99.90;;;;;;5036208;28;20510;-74
2021/05/27 02:08:03;;;;;;;5.13;3.00;;;8.60;99.90;;;;;;5058847;28;20487;-74
2021/05/27 02:10:41;;;;;;;3.10;2.80;;;8.60;99.90;;;;;;5054256;28;20480;-74
2021/05/27 02:13:08;;;;;;;3.60;2.83;;;8.60;99.90;;;;;;5028008;28;20463;-74
2021/05/27 02:15:34;;;;;;;3.33;3.03;;;8.60;99.90;;;;;;5039491;28;20530;-74
2021/05/27 02:18:00;;;;;;;3.40;2.60;;;8.60;99.90;;;;;;5056978;28;20867;-73
2021/05/27 02:20:26;;;;;;;3.80;3.50;;;8.50;99.90;;;;;;5015338;28;20460;-73
2021/05/27 02:22:52;;;;;;;6.73;3.63;;;8.50;99.90;;;;;;5072959;28;20463;-74
2021/05/27 02:25:34;;;;;;;4.00;3.37;;;8.50;99.90;;;;;;5040311;28;20466;-74
2021/05/27 02:28:02;;;;;;;3.33;2.87;;;8.50;99.90;;;;;;5042414;28;20551;-74
2021/05/27 02:30:29;;;;;;;3.57;3.07;;;8.50;99.90;;;;;;5027277;28;20464;-74
2021/05/27 02:32:56;;;;;;;3.40;3.00;;;8.50;99.90;;;;;;5056640;28;20463;-74
2021/05/27 02:35:24;;;;;;;3.83;3.10;;;8.50;99.90;;;;;;5044108;28;20468;-74
2021/05/27 02:37:51;;;;;;;4.17;3.50;;;8.40;99.90;;;;;;5040955;28;20480;-74
2021/05/27 02:40:18;;;;;;;4.00;3.50;;;8.40;99.90;;;;;;5049215;28;20482;-74
2021/05/27 02:42:44;;;;;;;4.17;3.57;;;8.50;99.90;;;;;;5056669;28;20456;-74
2021/05/27 02:45:12;;;;;;;4.10;3.40;;;8.50;99.90;;;;;;5027691;28;20493;-74
2021/05/27 02:47:43;;;;;;;3.60;3.30;;;8.50;99.90;;;;;;5038942;28;20868;-74
2021/05/27 02:50:09;;;;;;;4.13;3.53;;;8.50;99.90;;;;;;5079026;28;20449;-74
2021/05/27 02:52:37;;;;;;;3.90;3.20;;;8.40;99.90;;;;;;5045379;28;20212;-74
2021/05/27 02:55:03;;;;;;;3.60;3.20;;;8.50;99.90;;;;;;5055223;28;20464;-74
2021/05/27 02:57:30;;;;;;;4.10;2.90;;;8.40;99.90;;;;;;5059762;28;20259;-74
2021/05/27 02:59:56;;;;;;;3.83;2.90;;;8.40;99.90;;;;;;5039694;28;20487;-74
2021/05/27 03:02:34;;;;;;;4.90;2.67;;;8.40;99.90;;;;;;5055365;28;20225;-74
2021/05/27 03:05:00;;;;;;;5.73;3.47;;;8.40;99.90;;;;;;5057882;28;20452;-74
2021/05/27 03:07:26;;;;;;;3.60;3.20;;;8.40;99.90;;;;;;5042619;28;20638;-74
2021/05/27 03:09:52;;;;;;;7.17;3.40;;;8.40;99.90;;;;;;5009655;28;20488;-74
2021/05/27 03:12:18;;;;;;;3.57;2.87;;;8.40;99.90;;;;;;5062267;28;20215;-74
2021/05/27 03:14:46;;;;;;;4.17;2.73;;;8.40;99.90;;;;;;5059755;28;20509;-74
2021/05/27 03:17:16;;;;;;;3.50;3.17;;;8.40;99.90;;;;;;5044782;28;20530;-74
2021/05/27 03:19:42;;;;;;;4.43;3.50;;;8.40;99.90;;;;;;5059539;28;20458;-74
2021/05/27 03:22:09;;;;;;;4.00;3.27;;;8.40;99.90;;;;;;5060102;28;20449;-75
2021/05/27 03:24:37;;;;;;;3.80;3.03;;;8.40;99.90;;;;;;5055666;28;20511;-75
2021/05/27 03:27:03;;;;;;;3.50;3.20;;;8.40;99.90;;;;;;5038542;28;20447;-75
2021/05/27 03:29:29;;;;;;;3.50;3.20;;;8.30;99.90;;;;;;5045000;28;20235;-75
2021/05/27 03:31:55;;;;;;;3.30;2.80;;;8.30;99.90;;;;;;5039628;28;20533;-75
2021/05/27 03:34:21;;;;;;;4.43;2.60;;;8.30;99.90;;;;;;5044097;28;20239;-75
2021/05/27 03:36:47;;;;;;;3.93;3.47;;;8.30;99.90;;;;;;5044572;28;20455;-75
2021/05/27 03:39:16;;;;;;;3.87;3.00;;;8.30;99.90;;;;;;5066186;28;20604;-75
2021/05/27 03:41:42;;;;;;;5.20;3.80;;;8.30;99.90;;;;;;5057406;28;20460;-75
2021/05/27 03:44:09;;;;;;;4.70;3.40;;;8.30;99.90;;;;;;5042504;28;20462;-75
2021/05/27 03:46:36;;;;;;;3.50;3.20;;;8.30;99.90;;;;;;5059563;28;20451;-75
2021/05/27 03:49:02;;;;;;;12.23;3.87;;;8.30;99.90;;;;;;5041814;28;20466;-75
2021/05/27 03:51:28;;;;;;;3.83;3.30;;;8.30;99.90;;;;;;5051923;28;20461;-75
2021/05/27 03:53:54;;;;;;;3.77;3.37;;;8.30;99.90;;;;;;5043243;28;20949;-75
2021/05/27 03:56:20;;;;;;;4.30;3.83;;;8.30;99.90;;;;;;5041065;28;20220;-74
2021/05/27 04:01:48;;;;;;;4.53;3.30;;;8.30;99.90;;;;;;5072049;28;20227;-75
2021/05/27 04:07:11;;;;;;;3.90;3.50;;;8.30;99.90;;;;;;5054694;28;20455;-75
2021/05/27 04:09:42;;;;;;;3.90;3.47;;;8.30;99.90;;;;;;5060135;28;20463;-75
2021/05/27 04:17:41;;;;;;;7.27;4.77;;;8.30;99.90;;;;;;5067563;28;20568;-75
2021/05/27 04:20:09;;;;;;;5.03;3.70;;;8.30;99.90;;;;;;5045795;28;20473;-75
2021/05/27 04:22:34;;;;;;;4.30;3.90;;;8.30;99.90;;;;;;5016983;28;20445;-75
2021/05/27 04:25:01;;;;;;;6.40;3.97;;;8.40;99.90;;;;;;5038843;28;21021;-75
2021/05/27 04:27:26;;;;;;;4.40;3.90;;;8.30;99.90;;;;;;5034375;28;20276;-75
2021/05/27 04:29:53;;;;;;;3.97;3.57;;;8.30;99.90;;;;;;5043341;28;20455;-75
2021/05/27 04:35:03;;;;;;;6.40;4.03;;;8.40;99.90;;;;;;5005211;28;20460;-75
2021/05/27 04:37:28;;;;;;;7.07;4.60;;;8.40;99.90;;;;;;5006205;28;20510;-75
2021/05/27 04:39:54;;;;;;;5.20;3.93;;;8.40;99.90;;;;;;5045820;28;20704;-75
2021/05/27 04:42:20;;;;;;;4.60;4.00;;;8.40;99.90;;;;;;5006481;28;20216;-75
2021/05/27 04:44:45;;;;;;;5.13;3.93;;;8.40;99.90;;;;;;5021976;28;20327;-75
2021/05/27 04:47:11;;;;;;;10.67;4.57;;;8.40;99.90;;;;;;5052879;28;20240;-75
2021/05/27 04:49:37;;;;;;;5.63;4.37;;;8.40;99.90;;;;;;5067259;28;20240;-75
2021/05/27 04:52:02;;;;;;;5.07;4.57;;;8.40;99.90;;;;;;5071440;28;20240;-75
2021/05/27 04:54:28;;;;;;;4.27;3.67;;;8.50;99.90;;;;;;5058520;28;20316;-75
2021/05/27 04:56:54;;;;;;;4.77;4.33;;;8.50;99.90;;;;;;5036351;28;20229;-75
2021/05/27 04:59:20;;;;;;;4.93;4.30;;;8.50;99.90;;;;;;5055809;28;20227;-75
2021/05/27 05:01:45;;;;;;;6.93;4.30;;;8.50;99.90;;;;;;5051387;28;20213;-75
2021/05/27 05:04:11;;;;;;;6.47;4.93;;;8.50;99.90;;;;;;5075382;28;20221;-75
2021/05/27 05:06:38;;;;;;;4.63;4.10;;;8.50;99.90;;;;;;5079387;28;20219;-75
2021/05/27 05:09:03;;;;;;;6.17;4.40;;;8.50;99.90;;;;;;5047758;28;20289;-75
2021/05/27 05:11:29;;;;;;;8.10;4.60;;;8.50;99.90;;;;;;5031735;28;20470;-75
2021/05/27 05:13:55;;;;;;;7.20;4.70;;;8.60;99.90;;;;;;5011025;28;20212;-75
2021/05/27 05:16:21;;;;;;;5.43;4.37;;;8.50;99.90;;;;;;5078900;28;20278;-75
2021/05/27 05:18:46;;;;;;;6.93;4.70;;;8.60;99.90;;;;;;5033282;28;20497;-75
2021/05/27 05:21:12;;;;;;;6.13;4.63;;;8.60;99.90;;;;;;5048573;28;20224;-75
2021/05/27 05:23:38;;;;;;;6.00;3.90;;;8.60;99.90;;;;;;5048278;28;20270;-75
2021/05/27 05:26:03;;;;;;;6.23;4.63;;;8.60;99.90;;;;;;5064792;28;20227;-75
2021/05/27 05:28:29;;;;;;;5.73;4.37;;;8.60;99.90;;;;;;5045411;28;20224;-75
2021/05/27 05:31:17;;;;;;;5.30;4.77;;;8.60;99.90;;;;;;5031249;28;20742;-75
2021/05/27 05:33:42;;;;;;;4.00;3.60;;;8.70;99.90;;;;;;5048329;28;20389;-75
2021/05/27 05:36:08;;;;;;;6.40;5.13;;;8.70;99.90;;;;;;5043321;28;20530;-75
2021/05/27 05:38:34;;;;;;;4.10;3.70;;;8.70;99.90;;;;;;5062940;28;20640;-75
2021/05/27 05:41:01;;;;;;;7.50;4.30;;;8.70;99.90;;;;;;5041968;28;20235;-75
2021/05/27 05:43:27;;;;;;;5.80;4.40;;;8.70;99.90;;;;;;5045326;28;20278;-75
2021/05/27 05:45:52;;;;;;;5.10;4.40;;;8.70;99.90;;;;;;5042655;28;20471;-75
2021/05/27 05:48:21;;;;;;;4.73;4.17;;;8.70;99.90;;;;;;5041262;28;20237;-75
2021/05/27 05:50:52;;;;;;;6.37;4.13;;;8.80;99.90;;;;;;5045202;28;20268;-75
2021/05/27 05:53:22;;;;;;;4.03;3.00;;;8.80;99.90;;;;;;5013802;28;20897;-75
2021/05/27 05:55:49;;;;;;;3.33;3.03;;;8.80;99.90;;;;;;4998361;28;20456;-75
2021/05/27 05:58:15;;;;;;;7.50;4.83;;;8.80;99.90;;;;;;5062600;28;20945;-75
2021/05/27 06:00:41;;;;;;;4.27;3.87;;;8.80;99.90;;;;;;5016961;28;20446;-75
2021/05/27 06:03:07;;;;;;;5.13;4.33;;;8.90;99.90;;;;;;5080182;28;20227;-75
2021/05/27 06:05:51;;;;;;;5.20;4.13;;;8.90;99.90;;;;;;5032454;28;20250;-75
2021/05/27 06:08:37;;;;;;;6.57;4.00;;;8.90;99.90;;;;;;5030724;28;20459;-75
2021/05/27 06:11:04;;;;;;;5.80;4.20;;;8.90;99.90;;;;;;5063305;28;20477;-75
2021/05/27 06:13:29;;;;;;;6.40;4.47;;;9.00;99.90;;;;;;5047353;28;20212;-75
2021/05/27 06:15:55;;;;;;;5.23;4.07;;;9.00;99.90;;;;;;5028470;28;20459;-75
2021/05/27 06:18:21;;;;;;;5.20;3.63;;;9.10;99.90;;;;;;5080799;28;20681;-75
2021/05/27 06:21:10;;;;;;;4.30;3.90;;;9.10;99.90;;;;;;5039516;28;20223;-75
2021/05/27 06:23:36;;;;;;;5.77;3.90;;;9.10;99.90;;;;;;5046717;28;20463;-75
2021/05/27 06:26:02;;;;;;;5.40;4.23;;;9.20;99.90;;;;;;5030362;28;20279;-75
2021/05/27 06:28:28;;;;;;;7.50;3.90;;;9.20;99.90;;;;;;5030155;28;20986;-75
2021/05/27 06:30:53;;;;;;;4.47;3.90;;;9.20;99.90;;;;;;5041594;28;20498;-75
2021/05/27 06:33:20;;;;;;;5.90;4.10;;;9.30;99.90;;;;;;5029202;28;20219;-75
2021/05/27 06:35:45;;;;;;;5.00;4.17;;;9.30;99.90;;;;;;5031031;28;20597;-75
2021/05/27 06:38:13;;;;;;;5.03;3.80;;;9.40;99.90;;;;;;5026535;28;20483;-75
2021/05/27 06:40:39;;;;;;;4.80;3.90;;;9.40;99.90;;;;;;5055570;28;20225;-75
2021/05/27 06:43:06;;;;;;;4.07;3.60;;;9.50;99.90;;;;;;5055045;28;20462;-75
2021/05/27 06:45:33;;;;;;;8.03;3.87;;;9.60;99.90;;;;;;5063540;28;20228;-75
2021/05/27 06:47:58;;;;;;;7.43;4.20;;;9.60;99.90;;;;;;5046711;28;20547;-75
2021/05/27 06:50:34;;;;;;;5.90;4.10;;;9.70;99.90;;;;;;5047045;28;20546;-75
2021/05/27 06:53:05;;;;;;;3.90;3.50;;;9.80;99.90;;;;;;5029643;28;20227;-75
2021/05/27 06:55:31;;;;;;;8.30;4.77;;;9.90;99.90;;;;;;5029216;28;20475;-75
2021/05/27 06:57:57;;;;;;;4.43;3.70;;;10.00;99.90;;;;;;5062812;28;20463;-76
2021/05/27 07:00:23;;;;;;;5.53;3.97;;;10.10;99.90;;;;;;5046122;28;20523;-75
2021/05/27 07:02:51;;;;;;;6.57;3.67;;;10.20;99.90;;;;;;5046458;28;20538;-75
2021/05/27 07:05:17;;;;;;;5.33;4.53;;;10.30;99.90;;;;;;5048914;28;20227;-75
2021/05/27 07:07:43;;;;;;;5.13;3.80;;;10.50;99.90;;;;;;5030335;28;20542;-75
2021/05/27 07:10:09;;;;;;;4.90;3.43;;;10.50;99.90;;;;;;5035855;28;20570;-75
2021/05/27 07:12:35;;;;;;;4.93;3.77;;;10.60;99.90;;;;;;5063247;28;20217;-75
2021/05/27 07:15:02;;;;;;;5.47;3.87;;;10.60;99.90;;;;;;5045273;28;20467;-75
2021/05/27 07:17:28;;;;;;;5.40;3.60;;;10.70;99.90;;;;;;5062444;28;20213;-75
2021/05/27 07:19:54;;;;;;;4.27;3.60;;;10.70;99.90;;;;;;5062478;28;20482;-75
2021/05/27 07:22:20;;;;;;;5.90;3.60;;;10.70;99.90;;;;;;5029465;28;20591;-75
2021/05/27 07:24:47;;;;;;;7.77;3.70;;;10.70;99.90;;;;;;5027450;28;20534;-75
2021/05/27 07:27:13;;;;;;;4.90;4.20;;;10.70;99.90;;;;;;5048172;28;20236;-75
2021/05/27 07:29:39;;;;;;;4.53;3.83;;;10.70;99.90;;;;;;5064784;28;20454;-75
2021/05/27 07:32:06;;;;;;;4.70;3.60;;;10.80;99.90;;;;;;5030079;28;20498;-75
2021/05/27 07:34:32;;;;;;;3.80;3.20;;;10.80;99.90;;;;;;5050943;28;20487;-75
2021/05/27 07:36:58;;;;;;;4.83;2.77;;;10.80;99.90;;;;;;5061846;28;20463;-75
2021/05/27 07:39:36;;;;;;;4.30;3.53;;;10.80;99.90;;;;;;5044517;28;20463;-75
2021/05/27 07:42:04;;;;;;;4.67;3.60;;;10.90;99.90;;;;;;5012623;28;20640;-75
2021/05/27 07:44:30;;;;;;;3.50;3.17;;;10.90;99.90;;;;;;5074744;28;20985;-75
2021/05/27 07:46:56;;;;;;;4.20;3.40;;;10.90;99.90;;;;;;5081722;28;20512;-75
2021/05/27 07:49:22;;;;;;;3.60;3.30;;;11.00;99.90;;;;;;5073303;28;20239;-75
2021/05/27 07:51:49;;;;;;;5.57;4.03;;;11.00;99.90;;;;;;5046230;28;20502;-75
2021/05/27 07:54:14;;;;;;;4.20;3.60;;;11.00;99.90;;;;;;5061176;28;20228;-75
2021/05/27 07:56:40;;;;;;;4.60;4.07;;;11.10;99.90;;;;;;5062797;28;20880;-75
2021/05/27 07:59:06;;;;;;;4.27;3.70;;;11.10;99.90;;;;;;5044567;28;20213;-75
2021/05/27 08:01:32;;;;;;;6.83;3.70;;;11.20;99.90;;;;;;5057586;28;20235;-75
2021/05/27 08:03:57;;;;;;;3.43;3.13;;;11.20;99.90;;;;;;5061591;28;20232;-76
2021/05/27 08:06:23;;;;;;;5.10;3.43;;;11.20;99.90;;;;;;5028598;28;20212;-75
2021/05/27 08:08:49;;;;;;;3.90;3.50;;;11.20;99.90;;;;;;5045077;28;20681;-75
2021/05/27 08:11:15;;;;;;;4.13;3.23;;;11.30;99.90;;;;;;5044722;28;20301;-75
2021/05/27 08:13:41;;;;;;;4.20;3.40;;;11.30;99.90;;;;;;5044905;28;20455;-75
2021/05/27 08:16:07;;;;;;;3.97;3.47;;;11.30;99.90;;;;;;5061535;28;20455;-75
2021/05/27 08:18:33;;;;;;;4.80;3.30;;;11.40;99.90;;;;;;5062157;28;20990;-75
2021/05/27 08:20:59;;;;;;;3.40;3.10;;;11.40;99.90;;;;;;5028467;28;20310;-75
2021/05/27 08:23:24;;;;;;;4.40;3.40;;;11.50;99.90;;;;;;5044524;28;20757;-74
2021/05/27 08:25:50;;;;;;;4.17;3.77;;;11.60;99.90;;;;;;5078022;28;20229;-76
2021/05/27 08:28:16;;;;;;;4.10;3.47;;;11.60;99.90;;;;;;5045110;28;20226;-74
2021/05/27 08:30:41;;;;;;;3.73;2.70;;;11.70;99.90;;;;;;5028718;28;20319;-75
2021/05/27 08:33:07;;;;;;;3.23;2.93;;;11.80;99.90;;;;;;5027877;28;20235;-75
2021/05/27 08:35:33;;;;;;;4.80;4.03;;;12.00;99.90;;;;;;5044233;28;20232;-75
2021/05/27 08:37:58;;;;;;;3.77;3.30;;;12.00;99.90;;;;;;5043989;28;20228;-75
2021/05/27 08:40:24;;;;;;;2.70;2.50;;;12.10;99.90;;;;;;5060604;28;20228;-75
2021/05/27 08:42:51;;;;;;;4.03;3.10;;;12.20;99.90;;;;;;5028353;28;20696;-75
2021/05/27 08:45:19;;;;;;;4.53;3.50;;;12.40;99.90;;;;;;5060408;28;20622;-74
2021/05/27 08:47:46;;;;;;;3.40;3.10;;;12.40;99.90;;;;;;5061194;28;20454;-75
2021/05/27 08:50:12;;;;;;;3.13;2.83;;;12.50;99.90;;;;;;5029898;28;20998;-74
2021/05/27 08:52:37;;;;;;;4.90;3.77;;;12.60;99.90;;;;;;5040840;28;20451;-75
2021/05/27 08:55:04;;;;;;;2.93;2.67;;;12.70;99.90;;;;;;5045245;28;20540;-74
2021/05/27 08:57:30;;;;;;;3.30;3.00;;;12.80;99.90;;;;;;5045578;28;20693;-75
2021/05/27 08:59:55;;;;;;;3.10;2.80;;;12.80;99.90;;;;;;5044705;28;20506;-75
2021/05/27 09:02:21;;;;;;;3.33;2.83;;;12.80;99.90;;;;;;5028489;28;20733;-74
2021/05/27 09:05:31;;;;;;;3.13;2.80;;;12.80;99.90;;;;;;5027012;28;20234;-75
2021/05/27 09:08:00;;;;;;;3.37;2.70;;;12.80;99.90;;;;;;5053517;28;20255;-74
2021/05/27 09:10:47;;;;;;;3.43;3.13;;;12.80;99.90;;;;;;5055401;28;20896;-75
2021/05/27 09:13:15;;;;;;;3.30;3.00;;;12.80;99.90;;;;;;5044259;28;20456;-75
2021/05/27 09:15:42;;;;;;;3.63;2.80;;;12.80;99.90;;;;;;5045107;28;20542;-75
2021/05/27 09:18:08;;;;;;;3.43;2.40;;;12.90;99.90;;;;;;4995247;28;20543;-75
2021/05/27 09:20:35;;;;;;;3.60;2.93;;;12.90;99.90;;;;;;5062358;28;20607;-75
2021/05/27 09:23:20;;;;;;;3.80;2.97;;;13.00;99.90;;;;;;5028392;28;20259;-75
2021/05/27 09:25:56;;;;;;;5.97;2.93;;;13.00;99.90;;;;;;5045413;28;20590;-75
2021/05/27 09:28:29;;;;;;;4.20;3.07;;;13.10;99.90;;;;;;4995036;28;21024;-74
2021/05/27 09:30:58;;;;;;;3.43;2.77;;;13.10;99.90;;;;;;5011091;28;20515;-74
2021/05/27 09:33:41;;;;;;;3.63;3.17;;;13.20;99.90;;;;;;5023205;28;20475;-75
2021/05/27 09:36:08;;;;;;;2.80;2.60;;;13.20;99.90;;;;;;5054058;28;20447;-75
2021/05/27 09:38:39;;;;;;;3.27;2.90;;;13.20;99.90;;;;;;5048417;28;20512;-75
2021/05/27 09:41:18;;;;;;;3.83;2.40;;;13.20;99.90;;;;;;5033823;28;20474;-75
2021/05/27 09:43:48;;;;;;;3.70;3.40;;;13.20;99.90;;;;;;5031329;28;20448;-75
2021/05/27 09:46:14;;;;;;;2.70;2.10;;;13.20;99.90;;;;;;5079897;28;20455;-75
2021/05/27 09:48:39;;;;;;;3.60;2.80;;;13.20;99.90;;;;;;5000863;28;21045;-76
2021/05/27 09:51:05;;;;;;;4.17;2.80;;;13.30;99.90;;;;;;4995095;28;20279;-75
2021/05/27 09:53:32;;;;;;;3.40;2.67;;;13.30;99.90;;;;;;4995419;28;20368;-75
2021/05/27 09:56:00;;;;;;;2.53;2.33;;;13.30;99.90;;;;;;5028018;28;20296;-74
2021/05/27 09:58:26;;;;;;;4.07;2.63;;;13.30;99.90;;;;;;5010692;28;20487;-76
2021/05/27 10:01:29;;;;;;;2.30;2.10;;;13.30;99.90;;;;;;5042590;28;20514;-75
2021/05/27 10:04:09;;;;;;;2.13;1.97;;;13.40;99.90;;;;;;5019198;28;20658;-75
2021/05/27 10:06:34;;;;;;;2.40;1.97;;;13.40;99.90;;;;;;5044809;28;20499;-75
2021/05/27 10:09:01;;;;;;;2.27;2.07;;;13.40;99.90;;;;;;5026139;28;20452;-75
2021/05/27 10:11:26;;;;;;;2.20;2.10;;;13.40;99.90;;;;;;5060180;28;20312;-75
2021/05/27 10:13:53;;;;;;;2.50;2.30;;;13.40;99.90;;;;;;5013033;28;21035;-75
2021/05/27 10:16:22;;;;;;;2.50;2.00;;;13.40;99.90;;;;;;5061035;28;20231;-75
2021/05/27 10:18:49;;;;;;;2.70;2.50;;;13.40;99.90;;;;;;5031802;28;20455;-75
2021/05/27 10:21:15;;;;;;;1.90;1.80;;;13.40;99.90;;;;;;5046591;28;20470;-74
2021/05/27 10:23:41;;;;;;;2.23;2.03;;;13.40;99.90;;;;;;5030609;28;20455;-74
2021/05/27 10:26:07;;;;;;;3.43;2.10;;;13.50;99.90;;;;;;5047310;28;20517;-74
2021/05/27 10:28:34;;;;;;;8.33;2.97;;;13.50;99.90;;;;;;5030948;28;20982;-74
2021/05/27 10:31:02;;;;;;;2.53;2.33;;;13.60;99.90;;;;;;5013441;28;20566;-74
2021/05/27 10:33:37;;;;;;;2.43;2.20;;;13.60;99.90;;;;;;5077661;28;20462;-74
2021/05/27 10:36:03;;;;;;;1.63;1.53;;;13.70;99.90;;;;;;5038805;28;21023;-73
2021/05/27 10:38:38;;;;;;;3.47;2.40;;;13.70;99.90;;;;;;5046616;28;20538;-74
2021/05/27 10:41:38;;;;;;;1.90;1.80;;;13.80;99.90;;;;;;5060169;28;20979;-74
2021/05/27 10:44:04;;;;;;;2.63;1.80;;;13.80;99.90;;;;;;5018081;28;20982;-74
2021/05/27 10:46:42;;;;;;;2.00;1.90;;;13.90;99.90;;;;;;5011841;28;20882;-74
2021/05/27 10:49:08;;;;;;;2.23;2.03;;;13.90;99.90;;;;;;5043407;28;20476;-74
2021/05/27 10:51:35;;;;;;;3.33;2.60;;;14.00;99.90;;;;;;5043803;28;20472;-74
2021/05/27 10:54:07;;;;;;;2.50;2.13;;;14.00;99.90;;;;;;5026216;28;20229;-74
2021/05/27 10:56:36;;;;;;;2.27;2.07;;;14.10;99.90;;;;;;5010712;28;20476;-74
2021/05/27 10:59:15;;;;;;;5.10;2.37;;;14.20;99.90;;;;;;5053400;28;20467;-74
2021/05/27 11:01:44;;;;;;;3.60;2.83;;;14.20;99.90;;;;;;5046611;28;20459;-74
2021/05/27 11:04:27;;;;;;;2.27;2.07;;;14.20;99.90;;;;;;5046259;28;20475;-74
2021/05/27 11:07:16;;;;;;;2.00;1.90;;;14.30;99.90;;;;;;5047080;28;20451;-74
2021/05/27 11:09:43;;;;;;;1.90;1.80;;;14.30;99.90;;;;;;5023779;28;20475;-74
2021/05/27 11:12:12;;;;;;;2.33;2.13;;;14.30;99.90;;;;;;5037529;28;20529;-74
2021/05/27 11:14:40;;;;;;;2.73;2.53;;;14.30;99.90;;;;;;5009423;28;20981;-74
2021/05/27 11:17:06;;;;;;;3.13;2.33;;;14.30;99.90;;;;;;5042821;28;20480;-74
2021/05/27 11:25:11;;;;;;;2.03;1.90;;;14.30;99.90;;;;;;5042874;28;20460;-74
2021/05/27 11:27:52;;;;;;;2.20;2.00;;;14.40;99.90;;;;;;5058704;28;20460;-74
2021/05/27 11:30:39;;;;;;;4.27;1.93;;;14.40;99.90;;;;;;5042261;28;20525;-74
2021/05/27 11:33:11;;;;;;;2.23;2.00;;;14.50;99.90;;;;;;5089899;28;20490;-75
2021/05/27 11:35:42;;;;;;;5.30;2.63;;;14.50;99.90;;;;;;5082422;28;20454;-75
2021/05/27 11:38:18;;;;;;;1.93;1.80;;;14.60;99.90;;;;;;5081151;28;20509;-74
2021/05/27 11:40:52;;;;;;;1.70;1.60;;;14.70;99.90;;;;;;5082411;28;20474;-75
2021/05/27 11:43:28;;;;;;;1.70;1.60;;;14.70;99.90;;;;;;5065005;28;20456;-75
2021/05/27 11:45:54;;;;;;;2.60;1.90;;;14.60;99.90;;;;;;5046519;28;20489;-74
2021/05/27 11:48:25;;;;;;;1.60;1.50;;;14.60;99.90;;;;;;5058214;28;20800;-74
2021/05/27 11:50:58;;;;;;;2.73;1.97;;;14.60;99.90;;;;;;5009002;28;20480;-75
2021/05/27 11:53:25;;;;;;;2.73;1.93;;;14.60;99.90;;;;;;5033106;28;20547;-74
2021/05/27 11:55:53;;;;;;;2.20;2.03;;;14.60;99.90;;;;;;5026152;28;20547;-74
2021/05/27 11:58:36;;;;;;;2.00;1.90;;;14.60;99.90;;;;;;5008657;28;20569;-74
2021/05/27 12:01:20;;;;;;;2.80;2.37;;;14.60;99.90;;;;;;5040791;28;20468;-75
2021/05/27 12:04:09;;;;;;;3.60;2.40;;;14.60;99.90;;;;;;5063652;28;20453;-74
2021/05/27 12:06:56;;;;;;;2.13;1.70;;;14.70;99.90;;;;;;5065754;28;20536;-74
2021/05/27 12:09:22;;;;;;;2.23;1.87;;;14.60;99.90;;;;;;5058790;28;21033;-75
2021/05/27 12:11:48;;;;;;;1.83;1.73;;;14.60;99.90;;;;;;5046732;28;20492;-74
2021/05/27 12:14:14;;;;;;;2.30;1.70;;;14.60;99.90;;;;;;5007860;28;20225;-74
2021/05/27 12:16:40;;;;;;;1.87;1.73;;;14.60;99.90;;;;;;5009159;28;20309;-74
2021/05/27 12:19:08;;;;;;;1.97;1.80;;;14.60;99.90;;;;;;5045788;28;20532;-74
2021/05/27 12:21:35;;;;;;;2.17;1.80;;;14.60;99.90;;;;;;5007947;28;20317;-74
2021/05/27 12:24:02;;;;;;;3.17;2.30;;;14.60;99.90;;;;;;5009536;28;20464;-74
2021/05/27 12:26:28;;;;;;;2.40;2.20;;;14.60;99.90;;;;;;5024956;28;20468;-74
2021/05/27 12:28:54;;;;;;;2.30;2.10;;;14.60;99.90;;;;;;5000117;28;20515;-74
2021/05/27 12:31:21;;;;;;;3.40;2.50;;;14.60;99.90;;;;;;5027432;28;20303;-74
2021/05/27 12:33:47;;;;;;;2.80;2.33;;;14.70;99.90;;;;;;5043421;28;20915;-75
2021/05/27 12:36:13;;;;;;;2.30;2.10;;;14.60;99.90;;;;;;5048307;28;20461;-75
2021/05/27 12:38:49;;;;;;;2.90;2.23;;;14.70;99.90;;;;;;5065161;28;21004;-74
2021/05/27 12:41:17;;;;;;;3.30;2.60;;;14.70;99.90;;;;;;5070485;28;20546;-74
2021/05/27 12:43:49;;;;;;;2.53;2.20;;;14.60;99.90;;;;;;5062155;28;20477;-75
2021/05/27 12:46:18;;;;;;;2.57;2.37;;;14.70;99.90;;;;;;4997818;28;20468;-74
2021/05/27 12:48:56;;;;;;;2.63;2.43;;;14.60;99.90;;;;;;5040998;28;20506;-74
2021/05/27 12:51:24;;;;;;;3.77;2.23;;;14.60;99.90;;;;;;5008335;28;20459;-74
2021/05/27 12:53:51;;;;;;;2.97;2.47;;;14.60;99.90;;;;;;5009939;28;20468;-74
2021/05/27 12:56:22;;;;;;;4.60;2.60;;;14.60;99.90;;;;;;5041455;28;20451;-75
2021/05/27 12:59:17;;;;;;;3.40;2.50;;;14.60;99.90;;;;;;5024885;28;20464;-74
2021/05/27 13:01:46;;;;;;;9.07;8.23;;;14.60;99.90;;;;;;4995297;28;20546;-75
2021/05/27 13:04:21;;;;;;;16.07;14.33;;;14.50;99.90;;;;;;5027333;28;20469;-75
2021/05/27 13:06:47;;;;;;;16.33;13.97;;;14.50;99.90;;;;;;5026844;28;20457;-74
2021/05/27 13:09:15;;;;;;;7.40;6.67;;;14.50;99.90;;;;;;5019922;28;20463;-75
2021/05/27 13:12:05;;;;;;;4.87;4.47;;;14.50;99.90;;;;;;5040016;28;20961;-75
2021/05/27 13:14:31;;;;;;;3.53;3.23;;;14.60;99.90;;;;;;5054440;28;20471;-74
2021/05/27 13:17:00;;;;;;;4.20;2.70;;;14.60;99.90;;;;;;5024724;28;20448;-74
2021/05/27 13:19:26;;;;;;;2.87;2.57;;;14.60;99.90;;;;;;4991964;28;20338;-74